createdAt,value
2022-12-01T00:01:43.490Z,53.42
2022-12-01T00:04:49.069Z,53.76
2022-12-01T00:07:52.307Z,53.36
2022-12-01T00:10:55.552Z,53.42
2022-12-01T00:13:58.756Z,53.82
2022-12-01T00:17:01.877Z,53.92
2022-12-01T00:20:06.408Z,53.71
2022-12-01T00:23:09.509Z,53.90
2022-12-01T00:26:12.693Z,53.44
2022-12-01T00:29:15.792Z,53.47
2022-12-01T00:32:18.973Z,53.70
2022-12-01T00:35:22.297Z,53.09
2022-12-01T00:38:25.505Z,53.17
2022-12-01T00:41:28.632Z,52.80
2022-12-01T00:44:31.774Z,52.59
2022-12-01T00:47:34.872Z,52.16
2022-12-01T00:50:38.008Z,52.26
2022-12-01T00:53:41.169Z,52.00
2022-12-01T00:56:44.345Z,52.12
2022-12-01T00:59:47.772Z,52.07
2022-12-01T01:02:51.130Z,52.40
2022-12-01T01:05:54.418Z,52.04
2022-12-01T01:08:57.611Z,52.43
2022-12-01T01:12:00.765Z,52.47
2022-12-01T01:15:04.514Z,52.59
2022-12-01T01:18:10.226Z,52.53
2022-12-01T01:21:16.173Z,52.73
2022-12-01T01:24:19.333Z,52.60
2022-12-01T01:27:22.479Z,52.82
2022-12-01T01:30:25.633Z,52.45
2022-12-01T01:33:30.901Z,52.23
2022-12-01T01:36:34.417Z,51.88
2022-12-01T01:39:37.567Z,51.58
2022-12-01T01:42:40.660Z,51.53
2022-12-01T01:45:44.049Z,51.10
2022-12-01T01:48:52.236Z,51.17
2022-12-01T01:51:56.200Z,50.48
2022-12-01T01:54:59.499Z,50.63
2022-12-01T01:58:09.744Z,50.65
2022-12-01T02:01:13.082Z,50.61
2022-12-01T02:04:17.409Z,50.55
2022-12-01T02:07:21.391Z,49.73
2022-12-01T02:10:40.171Z,49.83
2022-12-01T02:14:17.922Z,48.85
2022-12-01T02:17:51.533Z,48.85
2022-12-01T02:21:15.661Z,48.58
2022-12-01T02:24:53.317Z,48.14
2022-12-01T02:28:20.346Z,48.00
2022-12-01T02:31:46.158Z,47.53
2022-12-01T02:35:16.059Z,47.62
2022-12-01T02:38:33.345Z,47.80
2022-12-01T02:41:56.005Z,47.28
2022-12-01T02:45:02.174Z,46.49
2022-12-01T02:48:11.056Z,46.92
2022-12-01T02:51:20.388Z,47.31
2022-12-01T02:54:24.996Z,47.00
2022-12-01T02:57:31.469Z,46.81
2022-12-01T03:00:34.818Z,45.52
2022-12-01T03:03:56.410Z,45.94
2022-12-01T03:07:20.661Z,44.97
2022-12-01T03:10:27.840Z,44.68
2022-12-01T03:14:07.291Z,44.92
2022-12-01T03:17:16.894Z,44.69
2022-12-01T03:20:38.182Z,44.28
2022-12-01T03:23:46.496Z,44.55
2022-12-01T03:26:57.526Z,44.12
2022-12-01T03:30:02.504Z,43.56
2022-12-01T03:33:10.600Z,44.09
2022-12-01T03:36:23.537Z,44.29
2022-12-01T03:39:33.928Z,44.47
2022-12-01T03:42:44.734Z,44.13
2022-12-01T03:46:04.254Z,44.53
2022-12-01T03:49:09.642Z,43.13
2022-12-01T03:52:42.402Z,43.30
2022-12-01T03:55:48.168Z,43.39
2022-12-01T03:58:55.607Z,43.88
2022-12-01T04:01:59.362Z,43.11
2022-12-01T04:05:02.514Z,43.37
2022-12-01T04:08:05.875Z,42.98
2022-12-01T04:11:32.664Z,43.20
2022-12-01T04:14:36.120Z,42.56
2022-12-01T04:17:40.436Z,43.12
2022-12-01T04:20:46.288Z,42.25
2022-12-01T04:24:01.632Z,42.72
2022-12-01T04:27:05.000Z,42.62
2022-12-01T04:30:09.101Z,42.60
2022-12-01T04:33:12.256Z,42.80
2022-12-01T04:36:15.446Z,42.64
2022-12-01T04:39:18.881Z,43.38
2022-12-01T04:42:22.056Z,43.04
2022-12-01T04:45:25.083Z,42.87
2022-12-01T04:48:28.190Z,42.18
2022-12-01T04:51:31.428Z,42.52
2022-12-01T04:54:34.625Z,43.06
2022-12-01T04:57:38.061Z,43.35
2022-12-01T05:00:41.408Z,43.26
2022-12-01T05:03:46.712Z,43.02
2022-12-01T05:06:49.853Z,42.87
2022-12-01T05:09:53.549Z,43.08
2022-12-01T05:12:58.541Z,42.22
2022-12-01T05:16:10.887Z,42.61
2022-12-01T05:19:32.182Z,43.11
2022-12-01T05:23:03.948Z,42.97
2022-12-01T05:25:58.571Z,43.56
2022-12-01T05:29:02.303Z,43.49
2022-12-01T05:32:05.838Z,42.72
2022-12-01T05:35:10.407Z,42.54
2022-12-01T05:38:13.648Z,43.26
2022-12-01T05:41:17.139Z,42.89
2022-12-01T05:44:20.499Z,42.96
2022-12-01T05:47:23.695Z,43.54
2022-12-01T05:50:28.823Z,43.35
2022-12-01T05:53:31.959Z,44.65
2022-12-01T05:56:35.370Z,44.59
2022-12-01T05:59:38.501Z,44.90
2022-12-01T06:02:42.644Z,46.06
2022-12-01T06:05:45.820Z,46.53
2022-12-01T06:08:48.941Z,48.27
2022-12-01T06:11:52.717Z,48.42
2022-12-01T06:14:55.965Z,48.88
2022-12-01T06:18:02.418Z,49.16
2022-12-01T06:21:07.549Z,49.62
2022-12-01T06:24:11.300Z,49.13
2022-12-01T06:27:14.498Z,49.85
2022-12-01T06:30:17.832Z,49.84
2022-12-01T06:33:21.165Z,48.47
2022-12-01T06:36:24.287Z,48.28
2022-12-01T06:39:27.388Z,46.15
2022-12-01T06:42:33.000Z,45.24
2022-12-01T06:45:37.111Z,44.14
2022-12-01T06:48:40.513Z,43.88
2022-12-01T06:51:46.102Z,44.22
2022-12-01T06:54:49.252Z,45.35
2022-12-01T06:57:52.759Z,44.13
2022-12-01T07:00:56.610Z,44.74
2022-12-01T07:03:59.752Z,43.49
2022-12-01T07:07:02.933Z,44.27
2022-12-01T07:10:07.548Z,44.33
2022-12-01T07:13:10.679Z,44.92
2022-12-01T07:16:14.230Z,44.05
2022-12-01T07:19:17.483Z,44.91
2022-12-01T07:22:20.732Z,44.71
2022-12-01T07:25:23.878Z,45.31
2022-12-01T07:28:27.489Z,45.03
2022-12-01T07:31:31.008Z,44.60
2022-12-01T07:34:34.140Z,45.23
2022-12-01T07:37:37.248Z,44.74
2022-12-01T07:40:40.491Z,44.85
2022-12-01T07:43:44.002Z,45.11
2022-12-01T07:46:47.125Z,45.15
2022-12-01T07:49:50.539Z,45.46
2022-12-01T07:52:53.901Z,45.46
2022-12-01T07:55:57.178Z,45.64
2022-12-01T07:59:00.314Z,45.63
2022-12-01T08:02:03.483Z,46.05
2022-12-01T08:05:06.899Z,46.23
2022-12-01T08:08:10.180Z,45.68
2022-12-01T08:11:22.096Z,46.61
2022-12-01T08:14:25.253Z,46.94
2022-12-01T08:17:28.408Z,47.87
2022-12-01T08:20:31.816Z,48.02
2022-12-01T08:23:35.284Z,49.00
2022-12-01T08:26:38.499Z,49.58
2022-12-01T08:29:41.557Z,49.86
2022-12-01T08:32:46.941Z,50.63
2022-12-01T08:35:50.079Z,50.68
2022-12-01T08:38:56.041Z,50.63
2022-12-01T08:41:59.200Z,51.01
2022-12-01T08:45:02.531Z,51.02
2022-12-01T08:48:05.801Z,51.66
2022-12-01T08:51:10.443Z,52.50
2022-12-01T08:54:13.849Z,52.11
2022-12-01T08:57:16.985Z,52.27
2022-12-01T09:00:20.216Z,51.93
2022-12-01T09:03:23.338Z,52.55
2022-12-01T09:06:26.634Z,52.68
2022-12-01T09:09:30.099Z,52.94
2022-12-01T09:12:33.192Z,52.69
2022-12-01T09:15:36.453Z,53.23
2022-12-01T09:18:40.050Z,52.94
2022-12-01T09:21:44.141Z,52.43
2022-12-01T09:24:47.332Z,53.31
2022-12-01T09:27:50.499Z,52.92
2022-12-01T09:30:53.746Z,53.14
2022-12-01T09:34:01.957Z,53.18
2022-12-01T09:37:05.615Z,53.28
2022-12-01T09:40:14.709Z,54.08
2022-12-01T09:43:21.911Z,54.58
2022-12-01T09:46:30.786Z,55.57
2022-12-01T09:49:50.414Z,56.68
2022-12-01T09:52:58.661Z,57.85
2022-12-01T09:56:08.570Z,58.32
2022-12-01T09:59:21.234Z,59.22
2022-12-01T10:02:37.322Z,59.55
2022-12-01T10:06:24.623Z,59.91
2022-12-01T10:09:28.541Z,60.27
2022-12-01T10:12:35.283Z,60.16
2022-12-01T10:16:05.429Z,61.04
2022-12-01T10:19:11.337Z,60.59
2022-12-01T10:22:46.609Z,60.15
2022-12-01T10:26:01.731Z,60.02
2022-12-01T10:29:16.834Z,61.01
2022-12-01T10:32:24.393Z,60.08
2022-12-01T10:35:36.682Z,60.41
2022-12-01T10:38:40.058Z,60.54
2022-12-01T10:42:13.958Z,60.82
2022-12-01T10:45:22.914Z,60.37
2022-12-01T10:48:26.351Z,60.39
2022-12-01T10:51:30.477Z,60.08
2022-12-01T10:54:37.914Z,60.56
2022-12-01T10:57:46.451Z,59.93
2022-12-01T11:00:59.948Z,60.31
2022-12-01T11:04:23.392Z,60.07
2022-12-01T11:07:31.585Z,60.47
2022-12-01T11:10:37.825Z,59.79
2022-12-01T11:13:43.226Z,59.58
2022-12-01T11:16:48.629Z,59.14
2022-12-01T11:19:53.791Z,58.81
2022-12-01T11:23:26.419Z,58.85
2022-12-01T11:26:32.861Z,59.10
2022-12-01T11:29:43.994Z,59.02
2022-12-01T11:33:18.558Z,58.69
2022-12-01T11:36:31.957Z,57.79
2022-12-01T11:40:07.954Z,57.89
2022-12-01T11:43:27.440Z,57.71
2022-12-01T11:46:50.120Z,57.85
2022-12-01T11:50:02.537Z,57.51
2022-12-01T11:53:42.960Z,57.73
2022-12-01T11:57:31.621Z,57.19
2022-12-01T12:00:49.172Z,57.02
2022-12-01T12:04:27.396Z,56.81
2022-12-01T12:08:07.241Z,56.31
2022-12-01T12:11:23.788Z,56.48
2022-12-01T12:14:52.786Z,56.88
2022-12-01T12:18:20.392Z,56.20
2022-12-01T12:22:01.063Z,55.99
2022-12-01T12:25:33.304Z,56.25
2022-12-01T12:28:52.282Z,56.53
2022-12-01T12:32:30.064Z,56.14
2022-12-01T12:35:42.057Z,56.12
2022-12-01T12:39:12.170Z,56.45
2022-12-01T12:42:48.837Z,56.21
2022-12-01T12:46:06.691Z,56.43
2022-12-01T12:49:20.561Z,56.37
2022-12-01T12:52:29.419Z,56.19
2022-12-01T12:55:40.657Z,55.93
2022-12-01T12:59:03.934Z,56.08
2022-12-01T13:02:24.528Z,56.11
2022-12-01T13:05:50.769Z,56.50
2022-12-01T13:09:17.201Z,56.88
2022-12-01T13:12:23.405Z,57.11
2022-12-01T13:15:28.297Z,57.09
2022-12-01T13:18:47.253Z,57.55
2022-12-01T13:21:53.110Z,57.70
2022-12-01T13:24:56.374Z,57.88
2022-12-01T13:28:02.743Z,58.05
2022-12-01T13:31:09.179Z,58.23
2022-12-01T13:34:23.489Z,58.52
2022-12-01T13:37:29.009Z,58.64
2022-12-01T13:40:35.175Z,59.23
2022-12-01T13:43:45.367Z,59.60
2022-12-01T13:46:48.438Z,60.31
2022-12-01T13:49:55.859Z,60.23
2022-12-01T13:53:25.984Z,61.11
2022-12-01T13:56:39.736Z,61.41
2022-12-01T13:59:59.500Z,61.49
2022-12-01T14:03:16.305Z,62.10
2022-12-01T14:06:27.584Z,62.05
2022-12-01T14:09:40.171Z,62.31
2022-12-01T14:12:46.557Z,62.64
2022-12-01T14:15:57.685Z,62.80
2022-12-01T14:19:04.173Z,62.65
2022-12-01T14:22:28.598Z,62.73
2022-12-01T14:25:34.315Z,62.98
2022-12-01T14:28:57.188Z,63.11
2022-12-01T14:32:19.976Z,62.98
2022-12-01T14:35:23.496Z,63.45
2022-12-01T14:38:30.308Z,63.50
2022-12-01T14:41:49.920Z,63.65
2022-12-01T14:44:56.119Z,63.61
2022-12-01T14:48:14.625Z,63.09
2022-12-01T14:51:30.844Z,63.12
2022-12-01T14:54:43.375Z,62.89
2022-12-01T14:57:51.980Z,62.91
2022-12-01T15:01:05.683Z,62.89
2022-12-01T15:04:09.044Z,62.77
2022-12-01T15:07:13.317Z,62.65
2022-12-01T15:10:35.511Z,62.20
2022-12-01T15:13:56.468Z,61.85
2022-12-01T15:17:00.496Z,61.29
2022-12-01T15:20:04.811Z,60.77
2022-12-01T15:23:16.821Z,60.33
2022-12-01T15:26:21.492Z,59.91
2022-12-01T15:29:24.618Z,59.48
2022-12-01T15:32:28.068Z,59.20
2022-12-01T15:35:31.413Z,58.92
2022-12-01T15:38:37.704Z,58.68
2022-12-01T15:41:44.038Z,58.72
2022-12-01T15:45:05.639Z,58.83
2022-12-01T15:48:17.673Z,58.59
2022-12-01T15:51:25.391Z,57.97
2022-12-01T15:54:29.074Z,57.54
2022-12-01T15:57:32.348Z,57.76
2022-12-01T16:00:36.074Z,57.90
2022-12-01T16:04:07.358Z,57.70
2022-12-01T16:07:12.042Z,57.44
2022-12-01T16:10:36.718Z,56.61
2022-12-01T16:13:48.282Z,56.30
2022-12-01T16:16:53.089Z,55.68
2022-12-01T16:20:18.536Z,55.07
2022-12-01T16:23:26.168Z,54.38
2022-12-01T16:26:30.582Z,54.06
2022-12-01T16:29:57.053Z,54.05
2022-12-01T16:33:15.889Z,53.66
2022-12-01T16:36:26.562Z,53.97
2022-12-01T16:39:30.666Z,54.29
2022-12-01T16:42:33.936Z,54.17
2022-12-01T16:45:37.387Z,54.17
2022-12-01T16:48:40.744Z,54.44
2022-12-01T16:51:55.455Z,54.22
2022-12-01T16:55:00.471Z,54.09
2022-12-01T16:58:03.752Z,53.90
2022-12-01T17:01:07.765Z,54.06
2022-12-01T17:04:10.991Z,54.17
2022-12-01T17:07:14.228Z,54.22
2022-12-01T17:10:18.272Z,54.38
2022-12-01T17:13:24.025Z,54.38
2022-12-01T17:16:27.282Z,54.54
2022-12-01T17:19:30.506Z,54.60
2022-12-01T17:22:33.678Z,54.66
2022-12-01T17:25:42.441Z,54.73
2022-12-01T17:28:46.085Z,54.67
2022-12-01T17:31:49.576Z,54.72
2022-12-01T17:34:52.977Z,54.98
2022-12-01T17:37:56.287Z,54.77
2022-12-01T17:41:11.160Z,54.88
2022-12-01T17:44:14.459Z,54.96
2022-12-01T17:47:17.857Z,54.90
2022-12-01T17:50:21.035Z,54.64
2022-12-01T17:53:24.201Z,54.60
2022-12-01T17:56:27.385Z,54.18
2022-12-01T17:59:30.553Z,54.38
2022-12-01T18:02:34.206Z,54.00
2022-12-01T18:05:38.707Z,53.53
2022-12-01T18:08:42.881Z,53.46
2022-12-01T18:11:46.178Z,53.50
2022-12-01T18:14:49.455Z,53.19
2022-12-01T18:17:53.432Z,53.14
2022-12-01T18:20:56.623Z,52.93
2022-12-01T18:24:02.077Z,52.65
2022-12-01T18:27:05.627Z,52.49
2022-12-01T18:30:09.335Z,53.06
2022-12-01T18:33:13.834Z,51.39
2022-12-01T18:36:21.814Z,50.62
2022-12-01T18:39:25.170Z,50.45
2022-12-01T18:42:28.460Z,49.35
2022-12-01T18:45:32.301Z,49.00
2022-12-01T18:48:36.415Z,48.35
2022-12-01T18:51:40.287Z,48.32
2022-12-01T18:54:43.502Z,48.37
2022-12-01T18:57:46.708Z,48.60
2022-12-01T19:00:49.887Z,48.30
2022-12-01T19:03:54.904Z,46.58
2022-12-01T19:06:58.346Z,46.41
2022-12-01T19:10:01.646Z,45.70
2022-12-01T19:13:05.290Z,44.79
2022-12-01T19:16:11.221Z,43.88
2022-12-01T19:19:14.562Z,43.60
2022-12-01T19:22:17.863Z,43.73
2022-12-01T19:25:22.753Z,42.52
2022-12-01T19:28:26.225Z,42.63
2022-12-01T19:31:29.507Z,42.68
2022-12-01T19:34:32.894Z,42.63
2022-12-01T19:37:39.333Z,42.56
2022-12-01T19:40:42.875Z,43.31
2022-12-01T19:43:46.071Z,43.22
2022-12-01T19:46:49.368Z,43.66
2022-12-01T19:49:52.563Z,44.27
2022-12-01T19:52:55.735Z,45.06
2022-12-01T19:56:05.758Z,46.22
2022-12-01T19:59:10.717Z,47.22
2022-12-01T20:02:14.099Z,48.16
2022-12-01T20:05:17.509Z,49.91
2022-12-01T20:08:22.075Z,51.52
2022-12-01T20:11:25.291Z,52.49
2022-12-01T20:14:28.574Z,53.17
2022-12-01T20:17:31.700Z,53.77
2022-12-01T20:20:34.888Z,54.00
2022-12-01T20:23:38.507Z,54.47
2022-12-01T20:26:50.360Z,54.71
2022-12-01T20:29:53.664Z,54.97
2022-12-01T20:32:56.899Z,55.21
2022-12-01T20:36:00.004Z,55.17
2022-12-01T20:39:03.633Z,55.40
2022-12-01T20:42:07.011Z,55.30
2022-12-01T20:45:10.296Z,55.25
2022-12-01T20:48:13.452Z,54.85
2022-12-01T20:51:16.913Z,54.47
2022-12-01T20:54:29.300Z,53.78
2022-12-01T20:57:33.341Z,53.30
2022-12-01T21:00:41.802Z,53.03
2022-12-01T21:03:46.270Z,52.36
2022-12-01T21:06:50.665Z,51.10
2022-12-01T21:09:53.872Z,50.30
2022-12-01T21:13:19.626Z,49.67
2022-12-01T21:16:31.663Z,48.96
2022-12-01T21:19:55.460Z,48.80
2022-12-01T21:23:23.355Z,48.72
2022-12-01T21:26:26.878Z,49.44
2022-12-01T21:29:42.833Z,49.79
2022-12-01T21:32:47.750Z,50.28
2022-12-01T21:35:52.975Z,50.28
2022-12-01T21:39:06.301Z,50.50
2022-12-01T21:42:20.500Z,50.76
2022-12-01T21:45:30.559Z,51.04
2022-12-01T21:48:37.416Z,50.62
2022-12-01T21:51:40.620Z,51.28
2022-12-01T21:54:43.880Z,51.09
2022-12-01T21:57:49.769Z,51.16
2022-12-01T22:00:55.260Z,51.12
2022-12-01T22:04:02.596Z,50.96
2022-12-01T22:07:06.140Z,51.21
2022-12-01T22:10:46.602Z,50.48
2022-12-01T22:14:19.875Z,50.79
2022-12-01T22:17:23.254Z,50.08
2022-12-01T22:20:26.534Z,49.99
2022-12-01T22:23:37.012Z,50.05
2022-12-01T22:26:48.379Z,50.02
2022-12-01T22:29:54.355Z,50.45
2022-12-01T22:33:06.273Z,49.36
2022-12-01T22:36:28.465Z,49.18
2022-12-01T22:39:34.743Z,48.96
2022-12-01T22:42:38.565Z,49.08
2022-12-01T22:45:42.181Z,49.71
2022-12-01T22:48:56.929Z,48.56
2022-12-01T22:52:03.933Z,48.45
2022-12-01T22:55:16.129Z,49.06
2022-12-01T22:58:35.851Z,49.10
2022-12-01T23:01:47.589Z,49.34
2022-12-01T23:04:57.504Z,48.96
2022-12-01T23:08:01.361Z,48.73
2022-12-01T23:11:11.568Z,48.03
2022-12-01T23:14:21.885Z,48.33
2022-12-01T23:17:31.504Z,47.97
2022-12-01T23:20:36.096Z,47.34
2022-12-01T23:23:39.377Z,48.23
2022-12-01T23:26:46.770Z,48.41
2022-12-01T23:29:50.040Z,48.37
2022-12-01T23:33:23.290Z,47.61
2022-12-01T23:36:29.355Z,48.64
2022-12-01T23:39:36.040Z,49.69
2022-12-01T23:42:39.258Z,49.53
2022-12-01T23:45:42.553Z,50.14
2022-12-01T23:48:52.450Z,51.19
2022-12-01T23:51:57.716Z,51.77
2022-12-01T23:55:01.139Z,52.23
2022-12-01T23:58:15.704Z,52.75
